sensor_id;sensor_type;location;lat;lon;timestamp;P1;durP1;ratioP1;P2;durP2;ratioP2
17844;SDS011;9047;53.486;10.218;2022-11-23T00:02:09;44.05;;;20.55;;
17844;SDS011;9047;53.486;10.218;2022-11-23T00:04:35;46.50;;;20.92;;
17844;SDS011;9047;53.486;10.218;2022-11-23T00:07:03;45.72;;;21.23;;
17844;SDS011;9047;53.486;10.218;2022-11-23T00:09:31;44.67;;;21.10;;
17844;SDS011;9047;53.486;10.218;2022-11-23T00:11:58;49.17;;;22.27;;
17844;SDS011;9047;53.486;10.218;2022-11-23T00:14:28;44.50;;;21.73;;
17844;SDS011;9047;53.486;10.218;2022-11-23T00:16:55;45.28;;;21.15;;
17844;SDS011;9047;53.486;10.218;2022-11-23T00:19:22;43.90;;;20.65;;
17844;SDS011;9047;53.486;10.218;2022-11-23T00:21:48;43.50;;;20.73;;
17844;SDS011;9047;53.486;10.218;2022-11-23T00:24:15;47.10;;;21.23;;
17844;SDS011;9047;53.486;10.218;2022-11-23T00:26:44;46.03;;;20.58;;
17844;SDS011;9047;53.486;10.218;2022-11-23T00:29:11;44.38;;;20.38;;
17844;SDS011;9047;53.486;10.218;2022-11-23T00:31:38;43.13;;;20.05;;
17844;SDS011;9047;53.486;10.218;2022-11-23T00:34:05;45.60;;;20.35;;
17844;SDS011;9047;53.486;10.218;2022-11-23T00:36:31;44.00;;;19.88;;
17844;SDS011;9047;53.486;10.218;2022-11-23T00:38:58;41.65;;;19.58;;
17844;SDS011;9047;53.486;10.218;2022-11-23T00:41:25;45.65;;;20.27;;
17844;SDS011;9047;53.486;10.218;2022-11-23T00:43:54;45.33;;;19.98;;
17844;SDS011;9047;53.486;10.218;2022-11-23T00:46:21;40.53;;;19.45;;
17844;SDS011;9047;53.486;10.218;2022-11-23T00:48:50;42.00;;;20.05;;
17844;SDS011;9047;53.486;10.218;2022-11-23T00:51:18;39.28;;;19.98;;
17844;SDS011;9047;53.486;10.218;2022-11-23T00:53:46;42.78;;;19.52;;
17844;SDS011;9047;53.486;10.218;2022-11-23T00:56:14;41.20;;;19.50;;
17844;SDS011;9047;53.486;10.218;2022-11-23T00:58:46;40.13;;;19.20;;
17844;SDS011;9047;53.486;10.218;2022-11-23T01:01:14;40.58;;;19.17;;
17844;SDS011;9047;53.486;10.218;2022-11-23T01:03:43;40.20;;;19.08;;
17844;SDS011;9047;53.486;10.218;2022-11-23T01:06:12;38.90;;;18.58;;
17844;SDS011;9047;53.486;10.218;2022-11-23T01:08:40;39.30;;;19.23;;
17844;SDS011;9047;53.486;10.218;2022-11-23T01:11:08;36.90;;;18.17;;
17844;SDS011;9047;53.486;10.218;2022-11-23T01:13:36;40.55;;;18.98;;
17844;SDS011;9047;53.486;10.218;2022-11-23T01:16:06;39.40;;;18.95;;
17844;SDS011;9047;53.486;10.218;2022-11-23T01:18:39;39.65;;;19.25;;
17844;SDS011;9047;53.486;10.218;2022-11-23T01:21:06;38.22;;;18.52;;
17844;SDS011;9047;53.486;10.218;2022-11-23T01:23:33;36.97;;;18.52;;
17844;SDS011;9047;53.486;10.218;2022-11-23T01:26:02;37.65;;;17.98;;
17844;SDS011;9047;53.486;10.218;2022-11-23T01:28:30;35.90;;;17.70;;
17844;SDS011;9047;53.486;10.218;2022-11-23T01:31:01;37.25;;;17.77;;
17844;SDS011;9047;53.486;10.218;2022-11-23T01:33:29;38.50;;;19.23;;
17844;SDS011;9047;53.486;10.218;2022-11-23T01:35:57;37.63;;;17.67;;
17844;SDS011;9047;53.486;10.218;2022-11-23T01:38:24;38.55;;;18.42;;
17844;SDS011;9047;53.486;10.218;2022-11-23T01:40:51;37.72;;;17.17;;
17844;SDS011;9047;53.486;10.218;2022-11-23T01:43:17;35.40;;;17.98;;
17844;SDS011;9047;53.486;10.218;2022-11-23T01:45:52;40.35;;;18.30;;
17844;SDS011;9047;53.486;10.218;2022-11-23T01:48:23;40.60;;;18.08;;
17844;SDS011;9047;53.486;10.218;2022-11-23T01:50:53;35.30;;;17.52;;
17844;SDS011;9047;53.486;10.218;2022-11-23T01:53:24;37.15;;;17.65;;
17844;SDS011;9047;53.486;10.218;2022-11-23T01:55:53;36.10;;;18.17;;
17844;SDS011;9047;53.486;10.218;2022-11-23T01:58:24;35.67;;;17.80;;
17844;SDS011;9047;53.486;10.218;2022-11-23T02:00:52;39.83;;;18.20;;
17844;SDS011;9047;53.486;10.218;2022-11-23T02:03:19;39.95;;;17.92;;
17844;SDS011;9047;53.486;10.218;2022-11-23T02:05:48;39.85;;;18.00;;
17844;SDS011;9047;53.486;10.218;2022-11-23T02:08:24;36.65;;;17.70;;
17844;SDS011;9047;53.486;10.218;2022-11-23T02:10:53;34.47;;;16.73;;
17844;SDS011;9047;53.486;10.218;2022-11-23T02:13:22;35.30;;;17.60;;
17844;SDS011;9047;53.486;10.218;2022-11-23T02:15:50;32.95;;;15.95;;
17844;SDS011;9047;53.486;10.218;2022-11-23T02:18:20;35.00;;;16.90;;
17844;SDS011;9047;53.486;10.218;2022-11-23T02:20:48;34.58;;;16.42;;
17844;SDS011;9047;53.486;10.218;2022-11-23T02:23:19;34.25;;;17.52;;
17844;SDS011;9047;53.486;10.218;2022-11-23T02:26:00;34.70;;;17.25;;
17844;SDS011;9047;53.486;10.218;2022-11-23T02:28:31;33.35;;;16.30;;
17844;SDS011;9047;53.486;10.218;2022-11-23T02:31:02;35.45;;;17.08;;
17844;SDS011;9047;53.486;10.218;2022-11-23T02:33:29;32.72;;;15.60;;
17844;SDS011;9047;53.486;10.218;2022-11-23T02:35:57;35.53;;;16.52;;
17844;SDS011;9047;53.486;10.218;2022-11-23T02:38:25;32.00;;;16.25;;
17844;SDS011;9047;53.486;10.218;2022-11-23T02:40:55;30.85;;;16.90;;
17844;SDS011;9047;53.486;10.218;2022-11-23T02:43:23;33.65;;;16.40;;
17844;SDS011;9047;53.486;10.218;2022-11-23T02:45:51;31.10;;;15.77;;
17844;SDS011;9047;53.486;10.218;2022-11-23T02:48:21;32.08;;;15.48;;
17844;SDS011;9047;53.486;10.218;2022-11-23T02:50:48;33.20;;;15.90;;
17844;SDS011;9047;53.486;10.218;2022-11-23T02:53:15;31.80;;;15.18;;
17844;SDS011;9047;53.486;10.218;2022-11-23T02:55:42;27.33;;;14.77;;
17844;SDS011;9047;53.486;10.218;2022-11-23T02:58:08;33.40;;;15.30;;
17844;SDS011;9047;53.486;10.218;2022-11-23T03:00:37;29.85;;;14.60;;
17844;SDS011;9047;53.486;10.218;2022-11-23T03:03:04;30.67;;;14.85;;
17844;SDS011;9047;53.486;10.218;2022-11-23T03:05:31;30.33;;;14.80;;
17844;SDS011;9047;53.486;10.218;2022-11-23T03:07:58;31.13;;;15.20;;
17844;SDS011;9047;53.486;10.218;2022-11-23T03:10:26;28.98;;;14.70;;
17844;SDS011;9047;53.486;10.218;2022-11-23T03:12:53;30.20;;;15.48;;
17844;SDS011;9047;53.486;10.218;2022-11-23T03:15:20;27.73;;;15.05;;
17844;SDS011;9047;53.486;10.218;2022-11-23T03:17:49;28.23;;;14.40;;
17844;SDS011;9047;53.486;10.218;2022-11-23T03:20:16;28.00;;;14.70;;
17844;SDS011;9047;53.486;10.218;2022-11-23T03:22:43;27.98;;;15.10;;
17844;SDS011;9047;53.486;10.218;2022-11-23T03:25:10;29.58;;;15.10;;
17844;SDS011;9047;53.486;10.218;2022-11-23T03:27:37;28.60;;;14.98;;
17844;SDS011;9047;53.486;10.218;2022-11-23T03:30:04;30.73;;;14.80;;
17844;SDS011;9047;53.486;10.218;2022-11-23T03:32:32;31.77;;;14.75;;
17844;SDS011;9047;53.486;10.218;2022-11-23T03:35:03;25.58;;;14.00;;
17844;SDS011;9047;53.486;10.218;2022-11-23T03:37:31;30.05;;;14.55;;
17844;SDS011;9047;53.486;10.218;2022-11-23T03:39:58;27.98;;;14.75;;
17844;SDS011;9047;53.486;10.218;2022-11-23T03:42:25;29.38;;;14.93;;
17844;SDS011;9047;53.486;10.218;2022-11-23T03:44:52;30.05;;;15.27;;
17844;SDS011;9047;53.486;10.218;2022-11-23T03:47:18;31.45;;;14.73;;
17844;SDS011;9047;53.486;10.218;2022-11-23T03:49:45;25.55;;;13.65;;
17844;SDS011;9047;53.486;10.218;2022-11-23T03:52:13;29.33;;;15.07;;
17844;SDS011;9047;53.486;10.218;2022-11-23T03:54:40;28.58;;;15.18;;
17844;SDS011;9047;53.486;10.218;2022-11-23T03:57:07;29.73;;;14.52;;
17844;SDS011;9047;53.486;10.218;2022-11-23T03:59:34;30.88;;;15.45;;
17844;SDS011;9047;53.486;10.218;2022-11-23T04:02:00;29.08;;;14.75;;
17844;SDS011;9047;53.486;10.218;2022-11-23T04:04:29;29.63;;;14.70;;
17844;SDS011;9047;53.486;10.218;2022-11-23T04:06:56;28.90;;;13.98;;
17844;SDS011;9047;53.486;10.218;2022-11-23T04:09:26;27.38;;;14.65;;
17844;SDS011;9047;53.486;10.218;2022-11-23T04:11:53;27.13;;;14.38;;
17844;SDS011;9047;53.486;10.218;2022-11-23T04:14:22;29.38;;;14.30;;
17844;SDS011;9047;53.486;10.218;2022-11-23T04:16:49;29.15;;;14.85;;
17844;SDS011;9047;53.486;10.218;2022-11-23T04:19:16;27.00;;;14.15;;
17844;SDS011;9047;53.486;10.218;2022-11-23T04:21:43;32.22;;;14.70;;
17844;SDS011;9047;53.486;10.218;2022-11-23T04:24:10;32.38;;;15.10;;
17844;SDS011;9047;53.486;10.218;2022-11-23T04:26:38;27.50;;;13.38;;
17844;SDS011;9047;53.486;10.218;2022-11-23T04:29:05;26.45;;;13.73;;
17844;SDS011;9047;53.486;10.218;2022-11-23T04:31:33;26.88;;;13.82;;
17844;SDS011;9047;53.486;10.218;2022-11-23T04:33:59;30.02;;;14.55;;
17844;SDS011;9047;53.486;10.218;2022-11-23T04:36:26;26.40;;;13.48;;
17844;SDS011;9047;53.486;10.218;2022-11-23T04:38:53;25.85;;;13.90;;
17844;SDS011;9047;53.486;10.218;2022-11-23T04:41:20;30.08;;;14.55;;
17844;SDS011;9047;53.486;10.218;2022-11-23T04:43:51;25.48;;;13.52;;
17844;SDS011;9047;53.486;10.218;2022-11-23T04:46:18;26.52;;;13.80;;
17844;SDS011;9047;53.486;10.218;2022-11-23T04:48:46;25.77;;;13.35;;
17844;SDS011;9047;53.486;10.218;2022-11-23T04:51:13;27.15;;;13.57;;
17844;SDS011;9047;53.486;10.218;2022-11-23T04:53:40;26.63;;;13.48;;
17844;SDS011;9047;53.486;10.218;2022-11-23T04:56:07;27.67;;;12.85;;
17844;SDS011;9047;53.486;10.218;2022-11-23T04:58:34;24.70;;;13.05;;
17844;SDS011;9047;53.486;10.218;2022-11-23T05:01:04;26.00;;;13.30;;
17844;SDS011;9047;53.486;10.218;2022-11-23T05:03:31;25.70;;;13.75;;
17844;SDS011;9047;53.486;10.218;2022-11-23T05:06:00;27.48;;;13.45;;
17844;SDS011;9047;53.486;10.218;2022-11-23T05:08:28;23.77;;;13.20;;
17844;SDS011;9047;53.486;10.218;2022-11-23T05:10:55;26.08;;;13.55;;
17844;SDS011;9047;53.486;10.218;2022-11-23T05:13:22;24.08;;;12.73;;
17844;SDS011;9047;53.486;10.218;2022-11-23T05:15:52;29.05;;;13.75;;
17844;SDS011;9047;53.486;10.218;2022-11-23T05:18:20;27.67;;;13.43;;
17844;SDS011;9047;53.486;10.218;2022-11-23T05:20:47;27.60;;;13.57;;
17844;SDS011;9047;53.486;10.218;2022-11-23T05:23:14;24.95;;;13.40;;
17844;SDS011;9047;53.486;10.218;2022-11-23T05:25:41;26.77;;;13.68;;
17844;SDS011;9047;53.486;10.218;2022-11-23T05:28:16;24.88;;;13.05;;
17844;SDS011;9047;53.486;10.218;2022-11-23T05:30:44;23.13;;;12.73;;
17844;SDS011;9047;53.486;10.218;2022-11-23T05:33:11;22.73;;;12.75;;
17844;SDS011;9047;53.486;10.218;2022-11-23T05:35:40;23.88;;;12.40;;
17844;SDS011;9047;53.486;10.218;2022-11-23T05:38:06;22.63;;;12.38;;
17844;SDS011;9047;53.486;10.218;2022-11-23T05:40:33;23.38;;;13.10;;
17844;SDS011;9047;53.486;10.218;2022-11-23T05:43:00;26.90;;;13.45;;
17844;SDS011;9047;53.486;10.218;2022-11-23T05:45:27;25.15;;;12.82;;
17844;SDS011;9047;53.486;10.218;2022-11-23T05:47:55;24.08;;;13.13;;
17844;SDS011;9047;53.486;10.218;2022-11-23T05:50:25;25.30;;;13.27;;
17844;SDS011;9047;53.486;10.218;2022-11-23T05:52:56;23.95;;;12.45;;
17844;SDS011;9047;53.486;10.218;2022-11-23T05:55:23;23.65;;;12.57;;
17844;SDS011;9047;53.486;10.218;2022-11-23T05:57:50;26.90;;;13.32;;
17844;SDS011;9047;53.486;10.218;2022-11-23T06:00:17;25.92;;;13.10;;
17844;SDS011;9047;53.486;10.218;2022-11-23T06:02:45;26.75;;;13.63;;
17844;SDS011;9047;53.486;10.218;2022-11-23T06:05:12;24.92;;;13.02;;
17844;SDS011;9047;53.486;10.218;2022-11-23T06:07:39;23.52;;;12.45;;
17844;SDS011;9047;53.486;10.218;2022-11-23T06:10:11;28.00;;;13.50;;
17844;SDS011;9047;53.486;10.218;2022-11-23T06:12:38;28.15;;;13.55;;
17844;SDS011;9047;53.486;10.218;2022-11-23T06:15:06;27.83;;;13.70;;
17844;SDS011;9047;53.486;10.218;2022-11-23T06:17:34;24.02;;;13.15;;
17844;SDS011;9047;53.486;10.218;2022-11-23T06:20:01;25.88;;;13.18;;
17844;SDS011;9047;53.486;10.218;2022-11-23T06:22:28;24.88;;;12.77;;
17844;SDS011;9047;53.486;10.218;2022-11-23T06:24:55;24.50;;;13.27;;
17844;SDS011;9047;53.486;10.218;2022-11-23T06:27:23;28.00;;;13.13;;
17844;SDS011;9047;53.486;10.218;2022-11-23T06:29:49;23.63;;;11.90;;
17844;SDS011;9047;53.486;10.218;2022-11-23T06:32:18;27.40;;;12.80;;
17844;SDS011;9047;53.486;10.218;2022-11-23T06:35:15;27.23;;;13.02;;
17844;SDS011;9047;53.486;10.218;2022-11-23T06:37:52;25.98;;;12.93;;
17844;SDS011;9047;53.486;10.218;2022-11-23T06:40:24;31.23;;;13.95;;
17844;SDS011;9047;53.486;10.218;2022-11-23T06:42:57;27.13;;;13.60;;
17844;SDS011;9047;53.486;10.218;2022-11-23T06:45:26;25.02;;;13.20;;
17844;SDS011;9047;53.486;10.218;2022-11-23T06:47:54;26.55;;;13.60;;
17844;SDS011;9047;53.486;10.218;2022-11-23T06:50:21;28.83;;;14.35;;
17844;SDS011;9047;53.486;10.218;2022-11-23T06:52:52;29.83;;;14.13;;
17844;SDS011;9047;53.486;10.218;2022-11-23T06:55:20;26.13;;;13.75;;
17844;SDS011;9047;53.486;10.218;2022-11-23T06:57:47;28.35;;;13.50;;
17844;SDS011;9047;53.486;10.218;2022-11-23T07:00:17;26.17;;;13.63;;
17844;SDS011;9047;53.486;10.218;2022-11-23T07:02:49;27.83;;;13.25;;
17844;SDS011;9047;53.486;10.218;2022-11-23T07:05:18;25.40;;;13.43;;
17844;SDS011;9047;53.486;10.218;2022-11-23T07:07:45;25.90;;;14.68;;
17844;SDS011;9047;53.486;10.218;2022-11-23T07:10:12;30.92;;;14.85;;
17844;SDS011;9047;53.486;10.218;2022-11-23T07:12:39;26.55;;;13.38;;
17844;SDS011;9047;53.486;10.218;2022-11-23T07:15:07;25.67;;;13.63;;
17844;SDS011;9047;53.486;10.218;2022-11-23T07:17:38;28.13;;;13.70;;
17844;SDS011;9047;53.486;10.218;2022-11-23T07:20:06;29.17;;;14.43;;
17844;SDS011;9047;53.486;10.218;2022-11-23T07:22:34;33.00;;;14.30;;
17844;SDS011;9047;53.486;10.218;2022-11-23T07:25:00;30.08;;;14.18;;
17844;SDS011;9047;53.486;10.218;2022-11-23T07:27:27;33.92;;;14.57;;
17844;SDS011;9047;53.486;10.218;2022-11-23T07:29:54;25.90;;;13.77;;
17844;SDS011;9047;53.486;10.218;2022-11-23T07:32:21;33.83;;;14.43;;
17844;SDS011;9047;53.486;10.218;2022-11-23T07:34:49;27.13;;;14.40;;
17844;SDS011;9047;53.486;10.218;2022-11-23T07:37:15;32.58;;;14.90;;
17844;SDS011;9047;53.486;10.218;2022-11-23T07:39:42;29.77;;;14.45;;
17844;SDS011;9047;53.486;10.218;2022-11-23T07:42:09;28.00;;;14.35;;
17844;SDS011;9047;53.486;10.218;2022-11-23T07:44:36;25.70;;;14.05;;
17844;SDS011;9047;53.486;10.218;2022-11-23T07:47:02;31.40;;;14.27;;
17844;SDS011;9047;53.486;10.218;2022-11-23T07:49:30;26.48;;;13.63;;
17844;SDS011;9047;53.486;10.218;2022-11-23T07:51:58;23.40;;;12.77;;
17844;SDS011;9047;53.486;10.218;2022-11-23T07:54:25;26.90;;;14.00;;
17844;SDS011;9047;53.486;10.218;2022-11-23T07:56:52;26.15;;;13.55;;
17844;SDS011;9047;53.486;10.218;2022-11-23T07:59:19;30.45;;;13.52;;
17844;SDS011;9047;53.486;10.218;2022-11-23T08:01:45;24.98;;;14.55;;
17844;SDS011;9047;53.486;10.218;2022-11-23T08:04:12;26.10;;;12.95;;
17844;SDS011;9047;53.486;10.218;2022-11-23T08:06:39;23.58;;;12.57;;
17844;SDS011;9047;53.486;10.218;2022-11-23T08:09:07;23.92;;;12.98;;
17844;SDS011;9047;53.486;10.218;2022-11-23T08:11:34;27.00;;;13.05;;
17844;SDS011;9047;53.486;10.218;2022-11-23T08:14:01;26.52;;;12.50;;
17844;SDS011;9047;53.486;10.218;2022-11-23T08:16:28;23.10;;;12.25;;
17844;SDS011;9047;53.486;10.218;2022-11-23T08:18:55;28.58;;;13.40;;
17844;SDS011;9047;53.486;10.218;2022-11-23T08:21:22;26.45;;;12.93;;
17844;SDS011;9047;53.486;10.218;2022-11-23T08:23:49;26.45;;;12.18;;
17844;SDS011;9047;53.486;10.218;2022-11-23T08:26:17;25.20;;;12.45;;
17844;SDS011;9047;53.486;10.218;2022-11-23T08:28:44;22.42;;;12.07;;
17844;SDS011;9047;53.486;10.218;2022-11-23T08:31:11;23.13;;;11.73;;
17844;SDS011;9047;53.486;10.218;2022-11-23T08:33:38;25.48;;;12.32;;
17844;SDS011;9047;53.486;10.218;2022-11-23T08:36:07;23.55;;;11.82;;
17844;SDS011;9047;53.486;10.218;2022-11-23T08:38:34;21.63;;;11.32;;
17844;SDS011;9047;53.486;10.218;2022-11-23T08:41:02;22.38;;;11.50;;
17844;SDS011;9047;53.486;10.218;2022-11-23T08:43:31;21.60;;;10.35;;
17844;SDS011;9047;53.486;10.218;2022-11-23T08:45:59;18.90;;;11.02;;
17844;SDS011;9047;53.486;10.218;2022-11-23T08:48:26;18.92;;;10.23;;
17844;SDS011;9047;53.486;10.218;2022-11-23T08:50:53;19.80;;;10.38;;
17844;SDS011;9047;53.486;10.218;2022-11-23T08:53:24;21.50;;;10.80;;
17844;SDS011;9047;53.486;10.218;2022-11-23T08:55:50;20.38;;;10.95;;
17844;SDS011;9047;53.486;10.218;2022-11-23T08:58:17;20.27;;;10.57;;
17844;SDS011;9047;53.486;10.218;2022-11-23T09:00:46;20.70;;;10.05;;
17844;SDS011;9047;53.486;10.218;2022-11-23T09:03:12;18.73;;;9.40;;
17844;SDS011;9047;53.486;10.218;2022-11-23T09:05:39;18.92;;;9.45;;
17844;SDS011;9047;53.486;10.218;2022-11-23T09:08:06;18.63;;;9.57;;
17844;SDS011;9047;53.486;10.218;2022-11-23T09:10:33;19.85;;;10.45;;
17844;SDS011;9047;53.486;10.218;2022-11-23T09:13:01;17.08;;;9.55;;
17844;SDS011;9047;53.486;10.218;2022-11-23T09:15:27;15.05;;;9.23;;
17844;SDS011;9047;53.486;10.218;2022-11-23T09:17:56;17.17;;;9.10;;
17844;SDS011;9047;53.486;10.218;2022-11-23T09:20:23;14.70;;;8.32;;
17844;SDS011;9047;53.486;10.218;2022-11-23T09:22:50;18.48;;;8.95;;
17844;SDS011;9047;53.486;10.218;2022-11-23T09:25:17;20.63;;;9.48;;
17844;SDS011;9047;53.486;10.218;2022-11-23T09:27:45;14.93;;;8.23;;
17844;SDS011;9047;53.486;10.218;2022-11-23T09:30:12;17.20;;;8.60;;
17844;SDS011;9047;53.486;10.218;2022-11-23T09:32:39;16.73;;;8.57;;
17844;SDS011;9047;53.486;10.218;2022-11-23T09:35:08;15.90;;;8.30;;
17844;SDS011;9047;53.486;10.218;2022-11-23T09:37:35;15.52;;;8.35;;
17844;SDS011;9047;53.486;10.218;2022-11-23T09:40:02;16.95;;;7.78;;
17844;SDS011;9047;53.486;10.218;2022-11-23T09:45:21;13.25;;;7.20;;
17844;SDS011;9047;53.486;10.218;2022-11-23T09:48:06;17.30;;;8.20;;
17844;SDS011;9047;53.486;10.218;2022-11-23T09:50:46;14.07;;;7.40;;
17844;SDS011;9047;53.486;10.218;2022-11-23T09:53:15;13.93;;;7.40;;
17844;SDS011;9047;53.486;10.218;2022-11-23T09:55:46;18.08;;;7.60;;
17844;SDS011;9047;53.486;10.218;2022-11-23T09:58:16;16.20;;;7.32;;
17844;SDS011;9047;53.486;10.218;2022-11-23T10:00:46;13.25;;;7.25;;
17844;SDS011;9047;53.486;10.218;2022-11-23T10:03:16;16.75;;;7.35;;
17844;SDS011;9047;53.486;10.218;2022-11-23T10:05:46;15.55;;;7.95;;
17844;SDS011;9047;53.486;10.218;2022-11-23T10:08:25;14.43;;;7.53;;
17844;SDS011;9047;53.486;10.218;2022-11-23T10:11:14;14.13;;;7.75;;
17844;SDS011;9047;53.486;10.218;2022-11-23T10:13:56;15.70;;;7.53;;
17844;SDS011;9047;53.486;10.218;2022-11-23T10:16:42;18.15;;;7.70;;
17844;SDS011;9047;53.486;10.218;2022-11-23T10:19:17;12.52;;;7.10;;
17844;SDS011;9047;53.486;10.218;2022-11-23T10:21:53;14.10;;;7.20;;
17844;SDS011;9047;53.486;10.218;2022-11-23T10:24:31;13.60;;;6.82;;
17844;SDS011;9047;53.486;10.218;2022-11-23T10:26:59;14.68;;;7.10;;
17844;SDS011;9047;53.486;10.218;2022-11-23T10:29:29;14.18;;;7.22;;
17844;SDS011;9047;53.486;10.218;2022-11-23T10:31:57;12.98;;;7.50;;
17844;SDS011;9047;53.486;10.218;2022-11-23T10:34:33;12.80;;;7.35;;
17844;SDS011;9047;53.486;10.218;2022-11-23T10:37:11;11.30;;;6.53;;
17844;SDS011;9047;53.486;10.218;2022-11-23T10:39:39;12.27;;;6.55;;
17844;SDS011;9047;53.486;10.218;2022-11-23T10:42:11;11.63;;;6.75;;
17844;SDS011;9047;53.486;10.218;2022-11-23T10:44:43;16.02;;;8.02;;
17844;SDS011;9047;53.486;10.218;2022-11-23T10:47:13;12.10;;;6.85;;
17844;SDS011;9047;53.486;10.218;2022-11-23T10:50:00;12.27;;;6.55;;
17844;SDS011;9047;53.486;10.218;2022-11-23T10:52:28;14.60;;;6.47;;
17844;SDS011;9047;53.486;10.218;2022-11-23T10:54:57;12.23;;;6.80;;
17844;SDS011;9047;53.486;10.218;2022-11-23T10:57:29;14.60;;;6.63;;
17844;SDS011;9047;53.486;10.218;2022-11-23T10:59:59;12.90;;;6.53;;
17844;SDS011;9047;53.486;10.218;2022-11-23T11:02:37;9.80;;;6.10;;
17844;SDS011;9047;53.486;10.218;2022-11-23T11:05:12;13.13;;;6.40;;
17844;SDS011;9047;53.486;10.218;2022-11-23T11:07:47;11.23;;;6.30;;
17844;SDS011;9047;53.486;10.218;2022-11-23T11:12:58;10.40;;;5.82;;
17844;SDS011;9047;53.486;10.218;2022-11-23T11:15:25;13.52;;;6.15;;
17844;SDS011;9047;53.486;10.218;2022-11-23T11:17:53;12.57;;;5.82;;
17844;SDS011;9047;53.486;10.218;2022-11-23T11:20:23;13.50;;;6.57;;
17844;SDS011;9047;53.486;10.218;2022-11-23T11:22:56;13.00;;;5.70;;
17844;SDS011;9047;53.486;10.218;2022-11-23T11:25:26;12.50;;;6.20;;
17844;SDS011;9047;53.486;10.218;2022-11-23T11:27:55;14.13;;;6.32;;
17844;SDS011;9047;53.486;10.218;2022-11-23T11:30:23;13.50;;;6.70;;
17844;SDS011;9047;53.486;10.218;2022-11-23T11:32:54;12.00;;;6.82;;
17844;SDS011;9047;53.486;10.218;2022-11-23T11:35:28;13.48;;;7.20;;
17844;SDS011;9047;53.486;10.218;2022-11-23T11:38:01;11.30;;;6.45;;
17844;SDS011;9047;53.486;10.218;2022-11-23T11:40:32;11.40;;;6.15;;
17844;SDS011;9047;53.486;10.218;2022-11-23T11:43:03;13.38;;;7.03;;
17844;SDS011;9047;53.486;10.218;2022-11-23T11:45:37;13.75;;;6.55;;
17844;SDS011;9047;53.486;10.218;2022-11-23T11:48:08;9.77;;;5.75;;
17844;SDS011;9047;53.486;10.218;2022-11-23T11:50:40;10.48;;;6.30;;
17844;SDS011;9047;53.486;10.218;2022-11-23T11:53:16;11.20;;;6.07;;
17844;SDS011;9047;53.486;10.218;2022-11-23T11:55:47;12.98;;;6.35;;
17844;SDS011;9047;53.486;10.218;2022-11-23T11:58:20;11.00;;;6.28;;
17844;SDS011;9047;53.486;10.218;2022-11-23T12:00:49;14.68;;;6.45;;
17844;SDS011;9047;53.486;10.218;2022-11-23T12:03:23;12.00;;;6.00;;
17844;SDS011;9047;53.486;10.218;2022-11-23T12:05:57;10.95;;;5.05;;
17844;SDS011;9047;53.486;10.218;2022-11-23T12:08:32;10.00;;;5.30;;
17844;SDS011;9047;53.486;10.218;2022-11-23T12:11:07;11.93;;;6.10;;
17844;SDS011;9047;53.486;10.218;2022-11-23T12:13:37;10.25;;;4.90;;
17844;SDS011;9047;53.486;10.218;2022-11-23T12:16:08;11.68;;;5.18;;
17844;SDS011;9047;53.486;10.218;2022-11-23T12:18:48;10.52;;;5.25;;
17844;SDS011;9047;53.486;10.218;2022-11-23T12:21:44;13.68;;;4.95;;
17844;SDS011;9047;53.486;10.218;2022-11-23T12:24:32;8.77;;;4.80;;
17844;SDS011;9047;53.486;10.218;2022-11-23T12:27:17;8.88;;;4.90;;
17844;SDS011;9047;53.486;10.218;2022-11-23T12:29:55;13.50;;;5.13;;
17844;SDS011;9047;53.486;10.218;2022-11-23T12:32:40;11.18;;;5.43;;
17844;SDS011;9047;53.486;10.218;2022-11-23T12:35:21;11.30;;;5.10;;
17844;SDS011;9047;53.486;10.218;2022-11-23T12:38:06;10.93;;;4.90;;
17844;SDS011;9047;53.486;10.218;2022-11-23T12:40:51;9.65;;;4.20;;
17844;SDS011;9047;53.486;10.218;2022-11-23T12:43:43;7.68;;;4.15;;
17844;SDS011;9047;53.486;10.218;2022-11-23T12:46:23;8.18;;;4.40;;
17844;SDS011;9047;53.486;10.218;2022-11-23T12:49:01;7.20;;;4.20;;
17844;SDS011;9047;53.486;10.218;2022-11-23T12:51:38;9.35;;;5.00;;
17844;SDS011;9047;53.486;10.218;2022-11-23T12:54:21;10.07;;;4.85;;
17844;SDS011;9047;53.486;10.218;2022-11-23T12:57:03;13.27;;;4.03;;
17844;SDS011;9047;53.486;10.218;2022-11-23T12:59:40;7.22;;;3.80;;
17844;SDS011;9047;53.486;10.218;2022-11-23T13:02:12;7.97;;;3.80;;
17844;SDS011;9047;53.486;10.218;2022-11-23T13:04:59;8.60;;;3.95;;
17844;SDS011;9047;53.486;10.218;2022-11-23T13:08:10;9.32;;;3.90;;
17844;SDS011;9047;53.486;10.218;2022-11-23T13:10:53;7.97;;;4.25;;
17844;SDS011;9047;53.486;10.218;2022-11-23T13:13:34;8.65;;;4.70;;
17844;SDS011;9047;53.486;10.218;2022-11-23T13:19:13;9.75;;;5.20;;
17844;SDS011;9047;53.486;10.218;2022-11-23T13:21:49;8.90;;;4.38;;
17844;SDS011;9047;53.486;10.218;2022-11-23T13:24:23;10.52;;;5.20;;
17844;SDS011;9047;53.486;10.218;2022-11-23T13:29:59;10.35;;;4.57;;
17844;SDS011;9047;53.486;10.218;2022-11-23T13:38:17;10.15;;;4.47;;
17844;SDS011;9047;53.486;10.218;2022-11-23T13:40:51;9.77;;;4.50;;
17844;SDS011;9047;53.486;10.218;2022-11-23T13:43:20;8.65;;;4.30;;
17844;SDS011;9047;53.486;10.218;2022-11-23T13:48:48;8.82;;;3.97;;
17844;SDS011;9047;53.486;10.218;2022-11-23T13:51:23;10.82;;;3.85;;
17844;SDS011;9047;53.486;10.218;2022-11-23T13:53:53;8.68;;;4.13;;
17844;SDS011;9047;53.486;10.218;2022-11-23T13:56:30;12.57;;;4.40;;
17844;SDS011;9047;53.486;10.218;2022-11-23T14:02:00;6.15;;;3.80;;
17844;SDS011;9047;53.486;10.218;2022-11-23T14:04:28;10.27;;;4.38;;
17844;SDS011;9047;53.486;10.218;2022-11-23T14:06:56;11.65;;;4.47;;
17844;SDS011;9047;53.486;10.218;2022-11-23T14:09:29;8.15;;;4.40;;
17844;SDS011;9047;53.486;10.218;2022-11-23T14:12:02;9.63;;;4.28;;
17844;SDS011;9047;53.486;10.218;2022-11-23T14:14:43;6.75;;;3.88;;
17844;SDS011;9047;53.486;10.218;2022-11-23T14:17:21;8.85;;;4.20;;
17844;SDS011;9047;53.486;10.218;2022-11-23T14:20:29;13.27;;;4.40;;
17844;SDS011;9047;53.486;10.218;2022-11-23T14:23:16;9.32;;;4.30;;
17844;SDS011;9047;53.486;10.218;2022-11-23T14:26:11;10.00;;;4.25;;
17844;SDS011;9047;53.486;10.218;2022-11-23T14:28:49;8.10;;;3.80;;
17844;SDS011;9047;53.486;10.218;2022-11-23T14:31:34;7.55;;;4.03;;
17844;SDS011;9047;53.486;10.218;2022-11-23T14:34:13;9.43;;;4.28;;
17844;SDS011;9047;53.486;10.218;2022-11-23T14:36:51;11.38;;;4.50;;
17844;SDS011;9047;53.486;10.218;2022-11-23T14:39:26;13.10;;;4.57;;
17844;SDS011;9047;53.486;10.218;2022-11-23T14:42:10;8.68;;;4.10;;
17844;SDS011;9047;53.486;10.218;2022-11-23T14:44:42;10.15;;;4.30;;
17844;SDS011;9047;53.486;10.218;2022-11-23T14:47:10;7.90;;;4.10;;
17844;SDS011;9047;53.486;10.218;2022-11-23T14:49:48;8.00;;;3.85;;
17844;SDS011;9047;53.486;10.218;2022-11-23T14:52:15;11.05;;;4.60;;
17844;SDS011;9047;53.486;10.218;2022-11-23T14:54:45;7.65;;;4.22;;
17844;SDS011;9047;53.486;10.218;2022-11-23T14:57:13;10.25;;;4.95;;
17844;SDS011;9047;53.486;10.218;2022-11-23T14:59:41;8.45;;;4.60;;
17844;SDS011;9047;53.486;10.218;2022-11-23T15:02:14;12.48;;;4.88;;
17844;SDS011;9047;53.486;10.218;2022-11-23T15:04:52;10.23;;;5.03;;
17844;SDS011;9047;53.486;10.218;2022-11-23T15:07:25;11.10;;;5.30;;
17844;SDS011;9047;53.486;10.218;2022-11-23T15:09:56;12.63;;;5.75;;
17844;SDS011;9047;53.486;10.218;2022-11-23T15:12:39;11.77;;;5.43;;